createdAt,value
2019-02-06T00:01:06.957Z,6.19
2019-02-06T00:03:38.596Z,6.19
2019-02-06T00:06:10.266Z,6.20
2019-02-06T00:08:41.917Z,6.22
2019-02-06T00:11:13.972Z,6.21
2019-02-06T00:13:46.015Z,6.23
2019-02-06T00:16:17.752Z,6.23
2019-02-06T00:18:49.914Z,6.24
2019-02-06T00:21:21.569Z,6.22
2019-02-06T00:23:53.338Z,6.21
2019-02-06T00:26:24.981Z,6.19
2019-02-06T00:28:57.002Z,6.21
2019-02-06T00:31:29.047Z,6.20
2019-02-06T00:34:00.765Z,6.18
2019-02-06T00:36:32.429Z,6.15
2019-02-06T00:39:06.688Z,6.13
2019-02-06T00:41:38.370Z,6.09
2019-02-06T00:44:10.030Z,6.08
2019-02-06T00:46:41.848Z,6.09
2019-02-06T00:49:13.885Z,6.10
2019-02-06T00:51:45.528Z,6.11
2019-02-06T00:54:17.184Z,6.12
2019-02-06T00:56:48.823Z,6.13
2019-02-06T00:59:20.483Z,6.14
2019-02-06T01:01:52.622Z,6.15
2019-02-06T01:04:24.769Z,6.16
2019-02-06T01:06:56.419Z,6.17
2019-02-06T01:09:28.226Z,6.18
2019-02-06T01:11:59.891Z,6.21
2019-02-06T01:14:32.052Z,6.22
2019-02-06T01:17:03.721Z,6.22
2019-02-06T01:19:35.387Z,6.21
2019-02-06T01:22:07.040Z,6.19
2019-02-06T01:24:38.697Z,6.20
2019-02-06T01:27:10.691Z,6.19
2019-02-06T01:29:42.371Z,6.21
2019-02-06T01:32:14.016Z,6.22
2019-02-06T01:34:45.682Z,6.23
2019-02-06T01:37:17.493Z,6.23
2019-02-06T01:39:49.587Z,6.23
2019-02-06T01:42:21.273Z,6.24
2019-02-06T01:44:53.411Z,6.23
2019-02-06T01:47:25.465Z,6.24
2019-02-06T01:49:57.338Z,6.24
2019-02-06T01:52:29.085Z,6.24
2019-02-06T01:55:01.108Z,6.22
2019-02-06T01:57:33.246Z,6.22
2019-02-06T02:00:21.692Z,6.20
2019-02-06T02:02:53.350Z,6.21
2019-02-06T02:05:25.070Z,6.19
2019-02-06T02:07:56.796Z,6.20
2019-02-06T02:10:28.827Z,6.20
2019-02-06T02:13:00.492Z,6.18
2019-02-06T02:15:32.289Z,6.17
2019-02-06T02:18:04.585Z,6.15
2019-02-06T02:20:36.253Z,6.15
2019-02-06T02:23:07.905Z,6.15
2019-02-06T02:25:39.564Z,6.16
2019-02-06T02:28:11.217Z,6.17
2019-02-06T02:30:44.526Z,6.16
2019-02-06T02:33:16.201Z,6.15
2019-02-06T02:35:47.846Z,6.13
2019-02-06T02:38:21.143Z,6.12
2019-02-06T02:40:52.885Z,6.12
2019-02-06T02:43:24.840Z,6.10
2019-02-06T02:45:56.829Z,6.10
2019-02-06T02:48:29.094Z,6.09
2019-02-06T02:51:00.805Z,6.08
2019-02-06T02:53:32.964Z,6.08
2019-02-06T02:56:04.642Z,6.07
2019-02-06T02:58:36.312Z,6.06
2019-02-06T03:01:21.810Z,6.04
2019-02-06T03:03:58.639Z,6.02
2019-02-06T03:06:30.284Z,6.00
2019-02-06T03:09:01.942Z,5.97
2019-02-06T03:11:33.593Z,5.96
2019-02-06T03:14:05.256Z,5.94
2019-02-06T03:16:37.001Z,5.94
2019-02-06T03:19:08.645Z,5.94
2019-02-06T03:21:40.318Z,5.94
2019-02-06T03:24:11.959Z,5.92
2019-02-06T03:26:43.619Z,5.92
2019-02-06T03:29:15.661Z,5.94
2019-02-06T03:31:47.310Z,5.93
2019-02-06T03:34:19.127Z,5.94
2019-02-06T03:36:50.784Z,5.94
2019-02-06T03:39:22.435Z,5.92
2019-02-06T03:41:54.514Z,5.90
2019-02-06T03:44:26.181Z,5.90
2019-02-06T03:46:57.857Z,5.89
2019-02-06T03:49:29.508Z,5.89
2019-02-06T03:52:01.160Z,5.88
2019-02-06T03:54:33.195Z,5.88
2019-02-06T03:57:05.130Z,5.87
2019-02-06T03:59:36.852Z,5.83
2019-02-06T04:02:08.519Z,5.81
2019-02-06T04:04:40.186Z,5.81
2019-02-06T04:07:12.209Z,5.79
2019-02-06T04:09:43.889Z,5.77
2019-02-06T04:12:15.544Z,5.76
2019-02-06T04:14:47.202Z,5.76
2019-02-06T04:17:18.871Z,5.76
2019-02-06T04:19:50.995Z,5.74
2019-02-06T04:22:22.660Z,5.73
2019-02-06T04:24:54.336Z,5.72
2019-02-06T04:27:26.009Z,5.71
2019-02-06T04:29:57.658Z,5.69
2019-02-06T04:32:29.604Z,5.66
2019-02-06T04:35:01.278Z,5.63
2019-02-06T04:37:32.915Z,5.61
2019-02-06T04:40:06.247Z,5.60
2019-02-06T04:42:37.914Z,5.58
2019-02-06T04:45:13.050Z,5.57
2019-02-06T04:47:44.771Z,5.54
2019-02-06T04:50:17.850Z,5.50
2019-02-06T04:52:49.646Z,5.46
2019-02-06T04:55:21.619Z,5.44
2019-02-06T04:57:53.763Z,5.42
2019-02-06T05:00:35.572Z,5.40
2019-02-06T05:03:08.146Z,5.37
2019-02-06T05:05:39.812Z,5.34
2019-02-06T05:08:12.059Z,5.33
2019-02-06T05:10:43.734Z,5.31
2019-02-06T05:13:15.762Z,5.30
2019-02-06T05:15:47.774Z,5.29
2019-02-06T05:18:20.725Z,5.26
2019-02-06T05:20:52.685Z,5.23
2019-02-06T05:23:24.368Z,5.18
2019-02-06T05:25:56.030Z,5.17
2019-02-06T05:28:28.045Z,5.16
2019-02-06T05:31:00.052Z,5.14
2019-02-06T05:33:32.088Z,5.14
2019-02-06T05:36:03.757Z,5.15
2019-02-06T05:38:35.490Z,5.15
2019-02-06T05:41:07.472Z,5.15
2019-02-06T05:43:39.477Z,5.15
2019-02-06T05:46:11.126Z,5.16
2019-02-06T05:48:42.850Z,5.16
2019-02-06T05:51:14.518Z,5.16
2019-02-06T05:53:46.236Z,5.15
2019-02-06T05:56:17.898Z,5.13
2019-02-06T05:58:49.625Z,5.12
2019-02-06T06:01:22.925Z,5.09
2019-02-06T06:03:54.606Z,5.07
2019-02-06T06:06:26.288Z,5.05
2019-02-06T06:08:58.501Z,5.08
2019-02-06T06:11:30.159Z,5.12
2019-02-06T06:14:02.121Z,5.16
2019-02-06T06:16:33.945Z,5.20
2019-02-06T06:19:05.597Z,5.20
2019-02-06T06:21:37.250Z,4.89
2019-02-06T06:24:09.254Z,5.17
2019-02-06T06:26:41.440Z,5.17
2019-02-06T06:29:13.120Z,5.19
2019-02-06T06:31:44.768Z,5.21
2019-02-06T06:34:16.437Z,5.23
2019-02-06T06:36:48.160Z,5.25
2019-02-06T06:39:20.232Z,5.27
2019-02-06T06:41:51.922Z,5.29
2019-02-06T06:44:23.573Z,5.30
2019-02-06T06:46:55.227Z,5.32
2019-02-06T06:49:26.878Z,5.35
2019-02-06T06:51:58.917Z,5.35
2019-02-06T06:54:30.622Z,5.36
2019-02-06T06:57:02.373Z,5.36
2019-02-06T06:59:34.031Z,5.37
2019-02-06T07:02:05.690Z,5.38
2019-02-06T07:04:37.679Z,5.38
2019-02-06T07:07:09.406Z,5.37
2019-02-06T07:09:41.074Z,5.37
2019-02-06T07:12:12.722Z,5.35
2019-02-06T07:14:44.720Z,5.34
2019-02-06T07:17:17.223Z,5.34
2019-02-06T07:19:48.879Z,5.35
2019-02-06T07:22:20.842Z,5.32
2019-02-06T07:24:52.558Z,5.30
2019-02-06T07:27:24.568Z,5.27
2019-02-06T07:29:56.762Z,5.26
2019-02-06T07:32:28.433Z,5.27
2019-02-06T07:35:00.101Z,5.25
2019-02-06T07:37:32.315Z,5.23
2019-02-06T07:40:08.979Z,5.21
2019-02-06T07:42:41.089Z,5.23
2019-02-06T07:45:15.970Z,5.27
2019-02-06T07:47:47.683Z,5.28
2019-02-06T07:50:28.470Z,5.30
2019-02-06T07:53:00.601Z,5.31
2019-02-06T07:55:32.568Z,5.29
2019-02-06T07:58:04.284Z,5.26
2019-02-06T08:00:35.950Z,4.89
2019-02-06T08:03:07.610Z,5.23
2019-02-06T08:05:39.733Z,5.23
2019-02-06T08:08:11.434Z,5.22
2019-02-06T08:10:43.142Z,4.98
2019-02-06T08:13:14.799Z,5.25
2019-02-06T08:15:46.486Z,5.24
2019-02-06T08:18:18.553Z,5.25
2019-02-06T08:20:50.588Z,5.26
2019-02-06T08:23:22.231Z,5.28
2019-02-06T08:25:53.892Z,5.30
2019-02-06T08:28:26.538Z,5.34
2019-02-06T08:30:58.533Z,5.37
2019-02-06T08:33:30.275Z,5.42
2019-02-06T08:36:01.964Z,5.44
2019-02-06T08:38:33.688Z,5.47
2019-02-06T08:41:05.708Z,5.49
2019-02-06T08:43:37.938Z,5.52
2019-02-06T08:46:09.592Z,5.52
2019-02-06T08:48:41.344Z,5.55
2019-02-06T08:51:13.027Z,5.53
2019-02-06T08:53:44.735Z,5.56
2019-02-06T08:56:16.708Z,5.61
2019-02-06T08:58:48.530Z,5.65
2019-02-06T09:01:20.187Z,5.68
2019-02-06T09:03:51.860Z,5.69
2019-02-06T09:06:24.159Z,5.75
2019-02-06T09:08:59.729Z,5.79
2019-02-06T09:11:29.562Z,5.81
2019-02-06T09:14:01.230Z,5.86
2019-02-06T09:16:32.909Z,5.90
2019-02-06T09:19:04.800Z,5.94
2019-02-06T09:21:36.833Z,5.96
2019-02-06T09:24:08.624Z,5.98
2019-02-06T09:26:40.282Z,6.02
2019-02-06T09:29:11.946Z,6.05
2019-02-06T09:31:43.614Z,6.12
2019-02-06T09:34:15.649Z,6.17
2019-02-06T09:36:47.371Z,6.19
2019-02-06T09:39:19.033Z,6.23
2019-02-06T09:41:50.896Z,6.22
2019-02-06T09:44:22.543Z,6.22
2019-02-06T09:46:54.264Z,6.25
2019-02-06T09:49:26.282Z,6.31
2019-02-06T09:51:58.278Z,6.36
2019-02-06T09:54:29.950Z,6.39
2019-02-06T09:57:01.686Z,6.44
2019-02-06T09:59:33.362Z,6.45
2019-02-06T10:02:05.322Z,6.44
2019-02-06T10:04:36.988Z,6.47
2019-02-06T10:07:08.713Z,6.48
2019-02-06T10:09:40.404Z,6.52
2019-02-06T10:12:12.356Z,6.51
2019-02-06T10:14:44.340Z,6.51
2019-02-06T10:17:16.097Z,6.53
2019-02-06T10:19:47.857Z,6.51
2019-02-06T10:22:19.815Z,6.51
2019-02-06T10:24:51.555Z,6.55
2019-02-06T10:27:24.078Z,6.58
2019-02-06T10:29:56.075Z,6.61
2019-02-06T10:32:27.958Z,6.65
2019-02-06T10:34:59.602Z,6.67
2019-02-06T10:37:31.303Z,6.70
2019-02-06T10:40:03.189Z,6.75
2019-02-06T10:42:34.853Z,6.76
2019-02-06T10:45:11.402Z,6.79
2019-02-06T10:47:43.125Z,6.79
2019-02-06T10:50:28.513Z,6.82
2019-02-06T10:53:00.178Z,6.80
2019-02-06T10:55:31.915Z,6.80
2019-02-06T10:58:03.562Z,6.79
2019-02-06T11:00:42.335Z,6.80
2019-02-06T11:03:14.022Z,6.84
2019-02-06T11:05:45.744Z,6.89
2019-02-06T11:08:17.401Z,6.94
2019-02-06T11:10:49.490Z,6.97
2019-02-06T11:13:22.269Z,7.01
2019-02-06T11:15:53.954Z,7.05
2019-02-06T11:18:26.028Z,7.06
2019-02-06T11:20:57.707Z,7.08
2019-02-06T11:23:29.360Z,7.11
2019-02-06T11:26:01.472Z,7.13
2019-02-06T11:28:33.399Z,7.15
2019-02-06T11:31:05.127Z,7.18
2019-02-06T11:33:36.790Z,7.20
2019-02-06T11:36:08.796Z,7.22
2019-02-06T11:38:40.958Z,7.20
2019-02-06T11:41:12.698Z,7.18
2019-02-06T11:43:44.356Z,7.18
2019-02-06T11:46:16.092Z,7.17
2019-02-06T11:48:47.743Z,7.17
2019-02-06T11:51:19.619Z,7.16
2019-02-06T11:53:51.655Z,7.17
2019-02-06T11:56:23.681Z,7.17
2019-02-06T11:58:55.619Z,7.18
2019-02-06T12:01:28.145Z,7.17
2019-02-06T12:04:00.050Z,7.20
2019-02-06T12:06:31.669Z,7.22
2019-02-06T12:09:03.608Z,7.25
2019-02-06T12:11:35.247Z,7.27
2019-02-06T12:14:07.700Z,7.30
2019-02-06T12:16:39.936Z,7.33
2019-02-06T12:19:11.818Z,7.37
2019-02-06T12:21:44.561Z,7.41
2019-02-06T12:24:16.233Z,7.44
2019-02-06T12:26:47.891Z,7.47
2019-02-06T12:29:19.939Z,7.49
2019-02-06T12:31:51.589Z,7.52
2019-02-06T12:34:23.244Z,7.54
2019-02-06T12:36:54.905Z,7.55
2019-02-06T12:39:26.695Z,7.58
2019-02-06T12:41:58.797Z,7.59
2019-02-06T12:44:30.795Z,7.62
2019-02-06T12:47:03.179Z,7.62
2019-02-06T12:49:35.237Z,7.62
2019-02-06T12:52:07.140Z,7.63
2019-02-06T12:54:38.818Z,7.64
2019-02-06T12:57:10.875Z,7.64
2019-02-06T12:59:42.597Z,7.64
2019-02-06T13:02:15.072Z,7.63
2019-02-06T13:04:46.729Z,7.66
2019-02-06T13:07:18.856Z,7.67
2019-02-06T13:09:51.081Z,7.70
2019-02-06T13:12:22.818Z,7.71
2019-02-06T13:14:54.510Z,7.73
2019-02-06T13:17:26.190Z,7.73
2019-02-06T13:19:57.863Z,7.76
2019-02-06T13:22:30.359Z,7.76
2019-02-06T13:25:02.015Z,7.75
2019-02-06T13:27:36.710Z,7.73
2019-02-06T13:30:19.116Z,7.73
2019-02-06T13:32:51.337Z,7.73
2019-02-06T13:35:23.016Z,7.74
2019-02-06T13:37:54.884Z,7.74
2019-02-06T13:40:29.910Z,7.72
2019-02-06T13:43:01.642Z,7.72
2019-02-06T13:45:41.053Z,7.71
2019-02-06T13:48:12.750Z,7.71
2019-02-06T13:50:44.601Z,7.71
2019-02-06T13:53:16.750Z,7.71
2019-02-06T13:55:49.416Z,7.70
2019-02-06T13:58:21.150Z,7.68
2019-02-06T14:00:53.016Z,7.68
2019-02-06T14:03:24.887Z,7.69
2019-02-06T14:05:56.554Z,7.67
2019-02-06T14:08:28.595Z,7.66
2019-02-06T14:11:00.849Z,7.65
2019-02-06T14:13:32.893Z,7.65
2019-02-06T14:16:06.789Z,7.63
2019-02-06T14:18:38.530Z,7.62
2019-02-06T14:21:10.686Z,7.61
2019-02-06T14:23:52.844Z,7.60
2019-02-06T14:26:32.413Z,7.57
2019-02-06T14:29:42.384Z,7.57
2019-02-06T14:32:21.787Z,7.54
2019-02-06T14:35:16.568Z,7.52
2019-02-06T14:38:21.496Z,7.50
2019-02-06T14:41:19.131Z,7.48
2019-02-06T14:44:13.123Z,7.47
2019-02-06T14:46:59.617Z,7.46
2019-02-06T14:50:07.192Z,7.44
2019-02-06T14:52:58.528Z,7.43
2019-02-06T14:55:53.951Z,7.41
2019-02-06T14:58:57.313Z,7.40
2019-02-06T15:02:11.687Z,7.40
2019-02-06T15:05:00.320Z,7.38
2019-02-06T15:07:48.495Z,7.38
2019-02-06T15:10:33.432Z,7.39
2019-02-06T15:13:21.694Z,7.40
2019-02-06T15:16:37.987Z,7.38
2019-02-06T15:19:20.306Z,7.37
2019-02-06T15:22:15.507Z,7.35
2019-02-06T15:25:20.723Z,7.34
2019-02-06T15:28:35.171Z,7.32
2019-02-06T15:31:44.577Z,7.30
2019-02-06T15:34:26.671Z,7.29
2019-02-06T15:37:26.024Z,7.26
2019-02-06T15:40:13.016Z,7.25
2019-02-06T15:43:07.699Z,7.23
2019-02-06T15:46:02.199Z,7.22
2019-02-06T15:48:52.985Z,7.19
2019-02-06T15:51:32.349Z,7.16
2019-02-06T15:54:24.532Z,7.13
2019-02-06T15:57:18.300Z,7.11
2019-02-06T16:00:12.514Z,7.09
2019-02-06T16:03:04.053Z,7.08
2019-02-06T16:06:03.373Z,7.06
2019-02-06T16:08:57.642Z,7.04
2019-02-06T16:11:42.313Z,7.04
2019-02-06T16:14:29.951Z,7.03
2019-02-06T16:17:28.352Z,7.02
2019-02-06T16:20:45.422Z,6.99
2019-02-06T16:23:37.031Z,6.98
2019-02-06T16:26:45.808Z,6.99
2019-02-06T16:29:39.066Z,6.98
2019-02-06T16:32:46.842Z,6.96
2019-02-06T16:35:44.986Z,6.96
2019-02-06T16:38:30.072Z,6.95
2019-02-06T16:41:53.013Z,6.96
2019-02-06T16:44:21.526Z,6.96
2019-02-06T16:47:10.002Z,6.97
2019-02-06T16:50:01.404Z,6.97
2019-02-06T16:53:00.259Z,6.97
2019-02-06T16:55:51.278Z,6.96
2019-02-06T16:58:35.135Z,6.97
2019-02-06T17:01:23.562Z,6.95
2019-02-06T17:04:08.556Z,6.95
2019-02-06T17:06:59.934Z,6.96
2019-02-06T17:09:57.528Z,6.97
2019-02-06T17:13:02.376Z,6.98
2019-02-06T17:15:47.376Z,6.99
2019-02-06T17:18:32.532Z,6.97
2019-02-06T17:21:30.375Z,6.97
2019-02-06T17:24:25.127Z,6.98
2019-02-06T17:27:13.349Z,7.00
2019-02-06T17:30:22.397Z,7.01
2019-02-06T17:33:45.668Z,7.00
2019-02-06T17:36:44.538Z,6.99
2019-02-06T17:39:33.411Z,6.99
2019-02-06T17:42:15.847Z,7.01
2019-02-06T17:45:39.817Z,7.02
2019-02-06T17:48:28.181Z,7.02
2019-02-06T17:51:31.893Z,7.02
2019-02-06T17:54:23.292Z,7.02
2019-02-06T17:56:55.026Z,7.04
2019-02-06T17:59:26.703Z,7.05
2019-02-06T18:01:58.688Z,7.05
2019-02-06T18:04:30.435Z,7.09
2019-02-06T18:07:02.075Z,7.11
2019-02-06T18:09:33.735Z,7.12
2019-02-06T18:12:05.857Z,7.14
2019-02-06T18:14:37.511Z,7.16
2019-02-06T18:17:09.541Z,7.17
2019-02-06T18:19:41.650Z,7.16
2019-02-06T18:22:13.293Z,7.17
2019-02-06T18:24:44.962Z,7.17
2019-02-06T18:27:16.614Z,7.19
2019-02-06T18:29:49.033Z,7.20
2019-02-06T18:32:21.404Z,7.21
2019-02-06T18:34:53.062Z,7.22
2019-02-06T18:37:24.727Z,7.22
2019-02-06T18:39:56.380Z,7.24
2019-02-06T18:42:36.843Z,7.25
2019-02-06T18:45:01.398Z,7.26
2019-02-06T18:47:33.284Z,7.25
2019-02-06T18:50:09.988Z,7.26
2019-02-06T18:52:41.634Z,7.27
2019-02-06T18:55:13.380Z,7.28
2019-02-06T18:57:45.192Z,7.29
2019-02-06T19:00:33.085Z,7.31
2019-02-06T19:03:15.506Z,7.31
2019-02-06T19:05:47.503Z,7.30
2019-02-06T19:08:19.146Z,7.31
2019-02-06T19:10:51.206Z,7.32
2019-02-06T19:13:22.857Z,7.33
2019-02-06T19:15:56.519Z,7.34
2019-02-06T19:18:27.878Z,7.37
2019-02-06T19:20:59.532Z,7.37
2019-02-06T19:23:31.267Z,7.38
2019-02-06T19:26:03.085Z,7.38
2019-02-06T19:28:34.761Z,7.38
2019-02-06T19:31:06.413Z,7.38
2019-02-06T19:33:38.081Z,7.38
2019-02-06T19:36:09.757Z,7.38
2019-02-06T19:38:42.062Z,7.39
2019-02-06T19:41:13.706Z,7.40
2019-02-06T19:43:45.364Z,7.39
2019-02-06T19:46:17.029Z,7.39
2019-02-06T19:48:48.813Z,7.40
2019-02-06T19:51:20.602Z,7.42
2019-02-06T19:53:52.519Z,7.42
2019-02-06T19:56:24.202Z,7.41
2019-02-06T19:58:55.878Z,7.41
2019-02-06T20:01:28.196Z,7.42
2019-02-06T20:03:59.847Z,7.43
2019-02-06T20:06:31.595Z,7.42
2019-02-06T20:09:04.718Z,7.42
2019-02-06T20:11:36.445Z,7.42
2019-02-06T20:14:08.174Z,7.42
2019-02-06T20:16:39.820Z,7.42
2019-02-06T20:19:11.486Z,7.43
2019-02-06T20:21:43.539Z,7.42
2019-02-06T20:24:15.229Z,7.42
2019-02-06T20:26:46.939Z,7.42
2019-02-06T20:29:19.826Z,7.42
2019-02-06T20:31:51.769Z,7.42
2019-02-06T20:34:23.455Z,7.43
2019-02-06T20:36:55.105Z,7.42
2019-02-06T20:39:26.751Z,7.42
2019-02-06T20:41:58.557Z,7.42
2019-02-06T20:44:30.326Z,7.42
2019-02-06T20:47:01.969Z,7.44
2019-02-06T20:49:34.166Z,7.44
2019-02-06T20:52:06.149Z,7.43
2019-02-06T20:54:37.818Z,7.42
2019-02-06T20:57:13.692Z,7.43
2019-02-06T20:59:42.905Z,7.44
2019-02-06T21:02:14.610Z,7.43
2019-02-06T21:04:47.145Z,7.46
2019-02-06T21:07:18.956Z,7.46
2019-02-06T21:09:50.985Z,7.47
2019-02-06T21:12:22.690Z,7.48
2019-02-06T21:14:54.358Z,7.47
2019-02-06T21:17:26.005Z,7.49
2019-02-06T21:19:57.665Z,7.48
2019-02-06T21:22:29.416Z,7.48
2019-02-06T21:25:01.076Z,7.49
2019-02-06T21:27:32.811Z,7.51
2019-02-06T21:30:08.180Z,7.51
2019-02-06T21:32:39.921Z,7.50
2019-02-06T21:35:11.595Z,7.51
2019-02-06T21:37:43.281Z,7.49
2019-02-06T21:40:24.366Z,7.51
2019-02-06T21:42:56.074Z,7.49
2019-02-06T21:45:28.096Z,7.49
2019-02-06T21:48:00.096Z,7.51
2019-02-06T21:50:31.777Z,7.52
2019-02-06T21:53:03.487Z,7.53
2019-02-06T21:55:35.182Z,7.54
2019-02-06T21:58:06.841Z,7.52
2019-02-06T22:00:42.447Z,7.52
2019-02-06T22:03:14.148Z,7.53
2019-02-06T22:05:45.868Z,7.53
2019-02-06T22:08:17.503Z,7.52
2019-02-06T22:10:49.185Z,7.52
2019-02-06T22:13:20.851Z,7.54
2019-02-06T22:15:53.028Z,7.54
2019-02-06T22:18:24.668Z,7.55
2019-02-06T22:20:56.361Z,7.56
2019-02-06T22:23:28.050Z,7.56
2019-02-06T22:25:59.724Z,7.54
2019-02-06T22:28:31.797Z,7.55
2019-02-06T22:31:03.485Z,7.55
2019-02-06T22:33:35.570Z,7.55
2019-02-06T22:36:07.514Z,7.54
2019-02-06T22:38:39.175Z,7.54
2019-02-06T22:41:11.191Z,7.55
2019-02-06T22:43:42.852Z,7.55
2019-02-06T22:46:14.529Z,7.55
2019-02-06T22:48:46.189Z,7.54
2019-02-06T22:51:17.836Z,7.53
2019-02-06T22:53:49.986Z,7.53
2019-02-06T22:56:21.896Z,7.51
2019-02-06T22:58:53.551Z,7.48
2019-02-06T23:01:29.860Z,7.50
2019-02-06T23:04:01.533Z,7.49
2019-02-06T23:06:33.174Z,7.49
2019-02-06T23:09:06.943Z,7.47
2019-02-06T23:11:38.589Z,7.46
2019-02-06T23:14:17.109Z,7.47
2019-02-06T23:16:43.669Z,7.48
2019-02-06T23:19:15.322Z,7.46
2019-02-06T23:21:46.982Z,7.44
2019-02-06T23:24:18.631Z,7.43
2019-02-06T23:26:50.282Z,7.42
2019-02-06T23:29:22.745Z,7.45
2019-02-06T23:31:54.417Z,7.44
2019-02-06T23:34:26.153Z,7.44
2019-02-06T23:36:57.802Z,7.43
2019-02-06T23:39:29.780Z,7.44
2019-02-06T23:42:01.801Z,7.41
2019-02-06T23:44:33.537Z,7.41
2019-02-06T23:47:05.210Z,7.40
2019-02-06T23:49:36.883Z,7.38
2019-02-06T23:52:08.526Z,7.39
2019-02-06T23:54:41.252Z,7.39
2019-02-06T23:57:12.894Z,7.39
2019-02-06T23:59:44.569Z,7.38
